NCAR-RAP Real-Time Weather Data

Output produced by METARs form (26 May 2022  08:39 UTC)
found at http://weather.rap.ucar.edu/surface/
 
KACY 260754Z 00000KT 10SM FEW028 11/11 A3029 RMK AO2 SLP257 T01110106
KACY 260654Z 09004KT 10SM CLR 11/09 A3030 RMK AO2 SLP258 T01060094
KACY 260554Z 00000KT 10SM CLR 11/09 A3032 RMK AO2 SLP267 T01110094 10139 20106 58008
KACY 260454Z 09004KT 10SM CLR 11/09 A3033 RMK AO2 SLP268 T01110094 402000106
KACY 260354Z 08003KT 10SM CLR 11/09 A3034 RMK AO2 SLP275 T01110089
KACY 260254Z 09004KT 10SM CLR 12/08 A3035 RMK AO2 SLP275 T01170083 58003
KACY 260154Z 00000KT 10SM BKN075 13/08 A3037 RMK AO2 SLP282 T01280078
KACY 260054Z 08006KT 10SM CLR 12/07 A3035 RMK AO2 SLP277 T01220067
KACY 252354Z 07005KT 10SM CLR 14/06 A3036 RMK AO2 SLP279 T01390056 10189 20139 53004
KACY 252254Z 08008KT 10SM CLR 16/06 A3035 RMK AO2 SLP275 T01560061
KACY 252154Z 09010KT 10SM CLR 17/05 A3034 RMK AO2 SLP274 T01720050
KACY 252054Z 08013KT 10SM CLR 18/05 A3035 RMK AO2 SLP275 T01780050 56010
KACY 251954Z 07014KT 10SM CLR 18/06 A3035 RMK AO2 SLP276 T01830061
KACY 251854Z 08011G18KT 10SM CLR 19/07 A3037 RMK AO2 SLP283 T01890067
KACY 251754Z 10014G19KT 10SM OVC080 18/07 A3037 RMK AO2 SLP285 T01830067 10200 20156 53001
KACY 251654Z 06012KT 10SM OVC085 19/08 A3037 RMK AO2 SLP282 T01940083
KACY 251554Z 09013KT 10SM OVC080 19/08 A3037 RMK AO2 SLP284 T01890083
KACY 251454Z 08014G19KT 10SM OVC080 19/08 A3037 RMK AO2 SLP284 T01890083 51008
KACY 251354Z 09011KT 10SM OVC085 18/09 A3037 RMK AO2 SLP284 T01830094
KACY 251254Z AUTO 08009KT 10SM OVC085 17/11 A3036 RMK AO2 SLP279 T01720111
KACY 251154Z AUTO 08010KT 10SM CLR 16/12 A3035 RMK AO2 SLP276 70001 T01560117 10156 20106 53016
KACY 251054Z AUTO 07004KT 10SM CLR 13/11 A3034 RMK AO2 SLP272 T01280111
KACY 250954Z AUTO 08004KT 10SM CLR 11/10 A3031 RMK AO2 SLP264 T01060100
KACY 250854Z AUTO 05003KT 10SM CLR 11/09 A3030 RMK AO2 SLP261 T01110094 53004
KACY 250754Z AUTO 00000KT 10SM CLR 12/10 A3029 RMK AO2 SLP257 T01220100
KACY 250654Z 06004KT 10SM CLR 12/10 A3029 RMK AO2 SLP255 T01220100
KACY 250554Z 06004KT 10SM SCT024 13/10 A3029 RMK AO2 SLP257 T01280100 10150 20128 56004
KACY 250454Z 06006KT 10SM SCT027 13/11 A3029 RMK AO2 SLP256 T01330106 401830128
KACY 250434Z 07005KT 10SM BKN026 13/11 A3029 RMK AO2 T01330106
KACY 250354Z 07007KT 10SM CLR 13/11 A3030 RMK AO2 SLP261 T01330106
KACY 250254Z 07007KT 10SM FEW120 14/11 A3030 RMK AO2 SLP259 T01390106 51006
KACY 250154Z 07009KT 10SM OVC090 14/11 A3029 RMK AO2 SLP258 T01440106
KACY 250054Z 06006KT 10SM OVC095 15/09 A3029 RMK AO2 SLP255 T01500094
KACY 242354Z 06009KT 10SM OVC090 15/09 A3028 RMK AO2 SLP253 T01500094 10183 20150 53002
KACY 242254Z 07008KT 10SM OVC095 16/09 A3028 RMK AO2 SLP252 T01560089
KACY 242154Z 07010KT 10SM OVC100 16/09 A3026 RMK AO2 SLP248 T01610089
KACY 242054Z 08011KT 10SM BKN095 17/09 A3028 RMK AO2 SLP251 T01670089 55005
KACY 241954Z 08011KT 10SM OVC060 17/09 A3027 RMK AO2 SLP251 T01720089
KACY 241854Z 11014G21KT 10SM OVC060 18/09 A3028 RMK AO2 SLP252 T01780089
KACY 241754Z 08012KT 10SM BKN060 18/10 A3029 RMK AO2 SLP256 60001 T01780100 10178 20144 50002
KACY 241654Z 10015G23KT 10SM OVC060 17/09 A3030 RMK AO2 SLP260 T01670094
KACY 241554Z 10015G23KT 10SM OVC055 17/09 A3030 RMK AO2 SLP259 T01720094
KACY 241454Z AUTO 08015G23KT 10SM OVC055 16/10 A3028 RMK AO2 SLP254 60001 T01610100 53016
KACY 241354Z 08014G18KT 10SM OVC060 16/11 A3026 RMK AO2 RAE23 SLP247 P0000 T01610111
KACY 241254Z 08009KT 10SM -RA OVC100 15/13 A3024 RMK AO2 RAB00 SLP240 P0001 T01500128
KACY 241154Z 07006KT 10SM SCT060 OVC110 14/13 A3024 RMK AO2 RAE42 SLP238 P0001 60002 70002 T01440133 10150 20144 53003
KACY 241054Z 09004KT 10SM -RA OVC110 14/13 A3022 RMK AO2 RAB17 SLP234 P0001 T01440133
KACY 240954Z 07004KT 10SM FEW070 SCT090 OVC110 15/13 A3021 RMK AO2 SLP230 T01500128
KACY 240854Z 00000KT 10SM OVC070 15/13 A3023 RMK AO2 SLP235 60000 T01500133 53010